createdAt,value
2018-11-07T00:00:35.399Z,15.93
2018-11-07T00:03:03.351Z,16.70
2018-11-07T00:05:31.268Z,17.93
2018-11-07T00:07:59.232Z,15.97
2018-11-07T00:10:27.106Z,17.73
2018-11-07T00:12:55.039Z,14.50
2018-11-07T00:15:22.976Z,14.57
2018-11-07T00:17:51.008Z,14.87
2018-11-07T00:20:18.987Z,13.47
2018-11-07T00:22:46.868Z,14.67
2018-11-07T00:25:14.843Z,17.37
2018-11-07T00:27:42.747Z,20.17
2018-11-07T00:30:11.242Z,15.20
2018-11-07T00:32:39.451Z,17.23
2018-11-07T00:35:08.484Z,16.50
2018-11-07T00:37:36.299Z,14.83
2018-11-07T00:40:04.270Z,13.67
2018-11-07T00:42:32.190Z,17.73
2018-11-07T00:45:00.172Z,13.70
2018-11-07T00:47:28.401Z,14.97
2018-11-07T00:49:56.359Z,15.20
2018-11-07T00:52:24.288Z,16.67
2018-11-07T00:54:52.316Z,17.20
2018-11-07T00:57:20.256Z,14.30
2018-11-07T00:59:48.191Z,14.03
2018-11-07T01:02:16.212Z,14.43
2018-11-07T01:04:44.112Z,15.87
2018-11-07T01:07:12.071Z,15.03
2018-11-07T01:09:40.237Z,13.93
2018-11-07T01:12:08.094Z,14.13
2018-11-07T01:14:36.027Z,14.93
2018-11-07T01:17:03.940Z,11.73
2018-11-07T01:19:31.870Z,16.77
2018-11-07T01:21:59.819Z,13.67
2018-11-07T01:24:27.747Z,13.53
2018-11-07T01:26:55.660Z,12.90
2018-11-07T01:29:23.611Z,13.03
2018-11-07T01:31:51.539Z,12.57
2018-11-07T01:34:19.479Z,13.83
2018-11-07T01:36:47.487Z,13.33
2018-11-07T01:39:15.424Z,17.50
2018-11-07T01:41:43.359Z,13.33
2018-11-07T01:44:11.235Z,12.80
2018-11-07T01:46:39.207Z,14.60
2018-11-07T01:49:07.163Z,13.60
2018-11-07T01:51:35.068Z,13.23
2018-11-07T01:54:03.012Z,11.43
2018-11-07T01:56:30.964Z,16.27
2018-11-07T01:58:58.997Z,11.27
2018-11-07T02:01:26.855Z,13.97
2018-11-07T02:03:54.767Z,10.73
2018-11-07T02:06:22.696Z,11.70
2018-11-07T02:08:50.607Z,13.47
2018-11-07T02:11:18.570Z,15.40
2018-11-07T02:13:46.515Z,9.47
2018-11-07T02:16:14.460Z,12.33
2018-11-07T02:18:42.898Z,12.13
2018-11-07T02:21:10.840Z,10.23
2018-11-07T02:23:38.831Z,13.07
2018-11-07T02:26:06.784Z,13.00
2018-11-07T02:28:34.687Z,11.40
2018-11-07T02:31:02.595Z,12.77
2018-11-07T02:33:30.532Z,16.63
2018-11-07T02:35:58.453Z,13.30
2018-11-07T02:38:26.353Z,11.40
2018-11-07T02:40:54.284Z,11.00
2018-11-07T02:43:22.187Z,11.77
2018-11-07T02:45:50.128Z,12.83
2018-11-07T02:48:18.078Z,13.33
2018-11-07T02:50:45.979Z,12.67
2018-11-07T02:53:14.017Z,11.83
2018-11-07T02:55:41.852Z,10.57
2018-11-07T02:58:09.795Z,16.63
2018-11-07T03:00:37.708Z,14.10
2018-11-07T03:03:05.647Z,10.93
2018-11-07T03:05:33.557Z,12.60
2018-11-07T03:08:01.454Z,14.43
2018-11-07T03:10:29.441Z,15.00
2018-11-07T03:12:57.284Z,14.70
2018-11-07T03:15:25.227Z,12.10
2018-11-07T03:17:53.143Z,11.80
2018-11-07T03:20:21.080Z,12.10
2018-11-07T03:22:49.000Z,14.37
2018-11-07T03:25:16.959Z,14.93
2018-11-07T03:27:44.870Z,14.00
2018-11-07T03:30:12.828Z,15.27
2018-11-07T03:32:40.736Z,15.30
2018-11-07T03:35:14.831Z,13.73
2018-11-07T03:37:42.757Z,14.90
2018-11-07T03:40:10.691Z,15.23
2018-11-07T03:42:38.611Z,14.80
2018-11-07T03:45:06.571Z,14.03
2018-11-07T03:47:34.536Z,16.20
2018-11-07T03:50:02.503Z,14.63
2018-11-07T03:52:30.439Z,15.80
2018-11-07T03:54:58.367Z,16.30
2018-11-07T03:57:26.419Z,15.27
2018-11-07T03:59:54.399Z,15.33
2018-11-07T04:02:22.321Z,14.97
2018-11-07T04:04:50.275Z,13.53
2018-11-07T04:07:18.204Z,15.20
2018-11-07T04:09:46.152Z,13.90
2018-11-07T04:12:14.071Z,16.47
2018-11-07T04:14:42.012Z,13.57
2018-11-07T04:17:09.992Z,13.07
2018-11-07T04:19:37.917Z,13.40
2018-11-07T04:22:05.859Z,14.53
2018-11-07T04:24:33.844Z,14.27
2018-11-07T04:27:01.787Z,12.67
2018-11-07T04:29:29.712Z,12.00
2018-11-07T04:31:57.645Z,14.27
2018-11-07T04:34:25.607Z,14.33
2018-11-07T04:36:53.552Z,14.53
2018-11-07T04:39:21.467Z,15.23
2018-11-07T04:41:49.403Z,14.60
2018-11-07T04:44:17.426Z,14.07
2018-11-07T04:46:45.344Z,12.93
2018-11-07T04:49:13.295Z,14.70
2018-11-07T04:51:41.207Z,15.20
2018-11-07T04:54:09.172Z,13.30
2018-11-07T04:56:37.154Z,10.90
2018-11-07T04:59:05.103Z,11.80
2018-11-07T05:01:33.004Z,11.83
2018-11-07T05:04:00.934Z,12.63
2018-11-07T05:06:28.880Z,8.90
2018-11-07T05:08:56.809Z,10.17
2018-11-07T05:11:24.729Z,11.13
2018-11-07T05:13:52.638Z,10.60
2018-11-07T05:16:20.623Z,11.20
2018-11-07T05:18:48.560Z,8.83
2018-11-07T05:21:16.524Z,9.10
2018-11-07T05:23:44.507Z,8.10
2018-11-07T05:26:12.449Z,13.70
2018-11-07T05:28:40.373Z,8.87
2018-11-07T05:31:08.284Z,8.60
2018-11-07T05:33:36.191Z,8.50
2018-11-07T05:36:04.134Z,11.57
2018-11-07T05:38:32.089Z,7.20
2018-11-07T05:41:00.046Z,9.33
2018-11-07T05:43:27.939Z,7.60
2018-11-07T05:45:55.891Z,8.13
2018-11-07T05:48:23.807Z,8.70
2018-11-07T05:50:51.753Z,10.67
2018-11-07T05:53:19.684Z,7.53
2018-11-07T05:55:47.616Z,8.60
2018-11-07T05:58:15.615Z,7.40
2018-11-07T06:00:43.543Z,6.47
2018-11-07T06:03:11.463Z,5.40
2018-11-07T06:05:39.404Z,4.50
2018-11-07T06:08:07.339Z,6.37
2018-11-07T06:10:35.256Z,5.90
2018-11-07T06:13:03.212Z,5.20
2018-11-07T06:15:31.116Z,6.67
2018-11-07T06:17:59.040Z,6.50
2018-11-07T06:20:26.982Z,7.40
2018-11-07T06:22:54.983Z,6.30
2018-11-07T06:25:22.843Z,7.00
2018-11-07T06:27:50.783Z,6.47
2018-11-07T06:30:18.723Z,8.20
2018-11-07T06:32:46.663Z,7.43
2018-11-07T06:35:14.595Z,7.77
2018-11-07T06:37:42.511Z,6.73
2018-11-07T06:40:11.531Z,12.23
2018-11-07T06:42:39.522Z,8.10
2018-11-07T06:45:07.980Z,7.33
2018-11-07T06:47:35.923Z,8.10
2018-11-07T06:50:04.170Z,9.90
2018-11-07T06:52:32.127Z,10.13
2018-11-07T06:55:00.042Z,9.33
2018-11-07T06:57:28.040Z,10.77
2018-11-07T06:59:55.978Z,5.97
2018-11-07T07:02:23.907Z,9.13
2018-11-07T07:04:51.825Z,7.43
2018-11-07T07:07:19.760Z,6.77
2018-11-07T07:09:47.680Z,10.57
2018-11-07T07:12:15.602Z,6.23
2018-11-07T07:14:43.573Z,7.50
2018-11-07T07:17:11.503Z,7.90
2018-11-07T07:19:39.418Z,10.03
2018-11-07T07:22:07.401Z,6.10
2018-11-07T07:24:35.335Z,7.23
2018-11-07T07:27:03.256Z,9.13
2018-11-07T07:29:31.191Z,6.03
2018-11-07T07:31:59.108Z,8.13
2018-11-07T07:34:27.047Z,10.33
2018-11-07T07:36:54.960Z,6.50
2018-11-07T07:39:22.871Z,10.50
2018-11-07T07:41:50.795Z,6.23
2018-11-07T07:44:18.705Z,5.10
2018-11-07T07:46:46.616Z,5.10
2018-11-07T07:49:14.849Z,8.10
2018-11-07T07:51:42.749Z,8.13
2018-11-07T07:54:10.651Z,8.50
2018-11-07T07:56:38.579Z,4.93
2018-11-07T07:59:06.552Z,7.97
2018-11-07T08:01:34.550Z,5.20
2018-11-07T08:04:02.438Z,5.47
2018-11-07T08:06:33.489Z,7.17
2018-11-07T08:09:01.419Z,5.93
2018-11-07T08:11:29.600Z,6.73
2018-11-07T08:13:57.782Z,5.57
2018-11-07T08:16:25.663Z,8.50
2018-11-07T08:18:53.563Z,7.67
2018-11-07T08:21:21.564Z,5.83
2018-11-07T08:23:49.469Z,7.80
2018-11-07T08:26:17.415Z,3.73
2018-11-07T08:28:45.447Z,5.07
2018-11-07T08:31:13.384Z,5.53
2018-11-07T08:33:41.316Z,6.73
2018-11-07T08:36:09.396Z,6.60
2018-11-07T08:38:37.456Z,6.33
2018-11-07T08:41:05.399Z,6.10
2018-11-07T08:43:33.335Z,6.40
2018-11-07T08:46:01.284Z,5.17
2018-11-07T08:48:29.220Z,4.67
2018-11-07T08:50:57.168Z,4.73
2018-11-07T08:53:25.140Z,6.23
2018-11-07T08:55:53.100Z,4.53
2018-11-07T08:58:21.035Z,4.73
2018-11-07T09:00:49.005Z,6.13
2018-11-07T09:03:16.932Z,3.30
2018-11-07T09:05:44.884Z,3.40
2018-11-07T09:08:12.812Z,4.40
2018-11-07T09:10:40.744Z,3.43
2018-11-07T09:13:08.847Z,2.90
2018-11-07T09:15:36.791Z,3.20
2018-11-07T09:18:04.920Z,2.67
2018-11-07T09:20:32.864Z,3.37
2018-11-07T09:23:00.944Z,3.63
2018-11-07T09:25:28.904Z,2.93
2018-11-07T09:27:56.824Z,2.93
2018-11-07T09:30:24.740Z,4.43
2018-11-07T09:32:52.708Z,2.23
2018-11-07T09:35:21.167Z,2.60
2018-11-07T09:37:49.112Z,3.63
2018-11-07T09:40:18.460Z,5.13
2018-11-07T09:42:47.132Z,2.13
2018-11-07T09:45:16.275Z,3.90
2018-11-07T09:47:44.723Z,3.20
2018-11-07T09:50:14.591Z,4.80
2018-11-07T09:52:42.760Z,3.70
2018-11-07T09:55:12.508Z,2.63
2018-11-07T09:57:40.672Z,2.57
2018-11-07T10:00:10.371Z,6.43
2018-11-07T10:02:38.615Z,6.27
2018-11-07T10:05:07.480Z,6.30
2018-11-07T10:07:35.397Z,2.93
2018-11-07T10:10:03.353Z,4.10
2018-11-07T10:12:31.298Z,5.77
2018-11-07T10:14:59.168Z,4.90
2018-11-07T10:17:27.100Z,4.90
2018-11-07T10:19:55.116Z,5.70
2018-11-07T10:22:23.088Z,2.77
2018-11-07T10:24:51.026Z,4.90
2018-11-07T10:27:19.180Z,2.93
2018-11-07T10:29:47.175Z,2.07
2018-11-07T10:32:14.866Z,4.87
2018-11-07T10:34:42.830Z,5.27
2018-11-07T10:37:10.791Z,4.27
2018-11-07T10:39:38.736Z,3.90
2018-11-07T10:42:06.727Z,3.37
2018-11-07T10:44:34.633Z,3.20
2018-11-07T10:47:02.593Z,4.13
2018-11-07T10:49:30.523Z,3.73
2018-11-07T10:51:58.484Z,3.73
2018-11-07T10:54:26.319Z,5.70
2018-11-07T10:56:54.248Z,2.63
2018-11-07T10:59:22.195Z,2.47
2018-11-07T11:01:55.497Z,4.77
2018-11-07T11:04:23.432Z,2.17
2018-11-07T11:06:51.356Z,2.43
2018-11-07T11:09:19.285Z,3.17
2018-11-07T11:11:47.216Z,1.87
2018-11-07T11:14:15.149Z,3.10
2018-11-07T11:16:43.088Z,3.40
2018-11-07T11:19:10.977Z,3.57
2018-11-07T11:21:38.908Z,3.03
2018-11-07T11:24:06.844Z,3.30
2018-11-07T11:26:34.815Z,2.10
2018-11-07T11:29:02.833Z,2.30
2018-11-07T11:31:30.768Z,4.43
2018-11-07T11:33:58.786Z,4.03
2018-11-07T11:36:26.662Z,5.83
2018-11-07T11:38:54.707Z,5.30
2018-11-07T11:41:22.636Z,3.40
2018-11-07T11:43:50.573Z,5.93
2018-11-07T11:46:18.487Z,6.30
2018-11-07T11:48:46.424Z,3.13
2018-11-07T11:51:14.385Z,5.13
2018-11-07T11:53:42.280Z,4.17
2018-11-07T11:56:10.284Z,3.10
2018-11-07T11:58:38.219Z,6.27
2018-11-07T12:01:06.646Z,1.60
2018-11-07T12:03:34.608Z,2.50
2018-11-07T12:06:02.555Z,4.87
2018-11-07T12:08:30.665Z,2.47
2018-11-07T12:10:58.495Z,4.47
2018-11-07T12:13:27.065Z,2.13
2018-11-07T12:15:55.003Z,3.77
2018-11-07T12:18:23.111Z,1.73
2018-11-07T12:20:51.627Z,1.90
2018-11-07T12:23:19.857Z,3.57
2018-11-07T12:25:47.901Z,3.97
2018-11-07T12:28:16.411Z,1.70
2018-11-07T12:30:44.790Z,5.40
2018-11-07T12:33:12.918Z,2.37
2018-11-07T12:35:41.432Z,2.30
2018-11-07T12:38:09.942Z,3.80
2018-11-07T12:40:38.230Z,1.57
2018-11-07T12:43:06.795Z,4.00
2018-11-07T12:45:34.958Z,3.30
2018-11-07T12:48:03.277Z,2.40
2018-11-07T12:50:31.700Z,1.70
2018-11-07T12:52:59.773Z,2.80
2018-11-07T12:55:28.208Z,4.80
2018-11-07T12:57:56.648Z,3.07
2018-11-07T13:00:26.100Z,2.40
2018-11-07T13:02:54.070Z,1.63
2018-11-07T13:05:22.830Z,2.37
2018-11-07T13:07:51.445Z,1.70
2018-11-07T13:10:20.628Z,1.93
2018-11-07T13:12:49.163Z,1.13
2018-11-07T13:15:17.455Z,4.33
2018-11-07T13:17:45.913Z,2.03
2018-11-07T13:20:16.130Z,1.93
2018-11-07T13:22:46.500Z,5.00
2018-11-07T13:25:14.969Z,2.10
2018-11-07T13:27:42.907Z,1.73
2018-11-07T13:30:13.139Z,1.57
2018-11-07T13:32:41.426Z,2.07
2018-11-07T13:35:10.292Z,2.23
2018-11-07T13:37:39.360Z,1.20
2018-11-07T13:40:09.296Z,3.17
2018-11-07T13:42:37.211Z,2.43
2018-11-07T13:45:06.571Z,3.60
2018-11-07T13:47:34.540Z,2.20
2018-11-07T13:50:02.466Z,5.03
2018-11-07T13:52:30.398Z,2.63
2018-11-07T13:54:58.315Z,3.57
2018-11-07T13:57:26.347Z,4.40
2018-11-07T13:59:54.279Z,5.00
2018-11-07T14:02:22.215Z,3.60
2018-11-07T14:04:50.160Z,3.63
2018-11-07T14:07:18.140Z,3.27
2018-11-07T14:09:46.043Z,4.50
2018-11-07T14:12:13.982Z,1.57
2018-11-07T14:14:42.005Z,2.43
2018-11-07T14:17:09.928Z,4.90
2018-11-07T14:19:37.843Z,1.80
2018-11-07T14:22:05.771Z,3.97
2018-11-07T14:24:33.712Z,2.67
2018-11-07T14:27:01.625Z,3.10
2018-11-07T14:29:29.550Z,5.53
2018-11-07T14:31:57.991Z,5.17
2018-11-07T14:34:26.058Z,3.30
2018-11-07T14:36:53.963Z,2.00
2018-11-07T14:39:21.936Z,4.30
2018-11-07T14:41:49.859Z,2.90
2018-11-07T14:44:17.931Z,2.43
2018-11-07T14:46:45.846Z,3.70
2018-11-07T14:49:13.748Z,3.73
2018-11-07T14:51:41.679Z,3.10
2018-11-07T14:54:09.593Z,4.00
2018-11-07T14:56:37.515Z,4.67
2018-11-07T14:59:05.408Z,1.77
2018-11-07T15:01:33.368Z,6.63
2018-11-07T15:04:01.291Z,6.23
2018-11-07T15:06:29.220Z,2.10
2018-11-07T15:08:57.175Z,3.73
2018-11-07T15:11:25.075Z,2.27
2018-11-07T15:13:52.964Z,2.43
2018-11-07T15:16:20.875Z,5.00
2018-11-07T15:18:48.802Z,4.37
2018-11-07T15:21:16.707Z,5.00
2018-11-07T15:23:44.627Z,5.50
2018-11-07T15:26:12.555Z,7.20
2018-11-07T15:28:40.493Z,11.47
2018-11-07T15:31:08.400Z,7.07
2018-11-07T15:33:36.356Z,7.17
2018-11-07T15:36:04.295Z,6.00
2018-11-07T15:38:32.203Z,3.90
2018-11-07T15:41:00.188Z,5.60
2018-11-07T15:43:28.124Z,5.07
2018-11-07T15:45:56.028Z,2.20
2018-11-07T15:48:23.943Z,4.03
2018-11-07T15:50:57.084Z,4.63
2018-11-07T15:53:25.003Z,5.27
2018-11-07T15:55:52.939Z,6.43
2018-11-07T15:58:20.840Z,2.67
2018-11-07T16:00:48.723Z,5.40
2018-11-07T16:03:20.899Z,4.13
2018-11-07T16:05:48.817Z,3.63
2018-11-07T16:08:16.713Z,7.97
2018-11-07T16:10:44.623Z,2.97
2018-11-07T16:13:12.610Z,1.93
2018-11-07T16:15:40.614Z,2.20
2018-11-07T16:18:08.380Z,4.40
2018-11-07T16:20:36.346Z,2.53
2018-11-07T16:23:04.719Z,2.40
2018-11-07T16:25:32.619Z,4.00
2018-11-07T16:28:00.547Z,4.47
2018-11-07T16:30:28.468Z,1.63
2018-11-07T16:32:56.408Z,3.90
2018-11-07T16:35:24.316Z,1.90
2018-11-07T16:37:52.297Z,2.90
2018-11-07T16:40:20.312Z,3.63
2018-11-07T16:42:48.213Z,3.83
2018-11-07T16:45:16.939Z,7.83
2018-11-07T16:47:45.028Z,5.10
2018-11-07T16:50:14.008Z,3.33
2018-11-07T16:52:42.078Z,3.57
2018-11-07T16:55:09.955Z,3.40
2018-11-07T16:57:38.379Z,1.87
2018-11-07T17:00:08.425Z,1.10
2018-11-07T17:02:36.360Z,4.43
2018-11-07T17:05:04.431Z,1.13
2018-11-07T17:07:32.332Z,2.53
2018-11-07T17:10:00.283Z,2.37
2018-11-07T17:12:28.192Z,2.00
2018-11-07T17:14:56.299Z,2.13
2018-11-07T17:17:24.220Z,3.47
2018-11-07T17:19:52.135Z,3.70
2018-11-07T17:22:20.067Z,2.20
2018-11-07T17:24:48.057Z,7.77
2018-11-07T17:27:15.927Z,8.33
2018-11-07T17:29:43.896Z,15.33
2018-11-07T17:32:11.828Z,4.70
2018-11-07T17:34:39.739Z,2.93
2018-11-07T17:37:07.721Z,5.27
2018-11-07T17:39:35.663Z,2.10
2018-11-07T17:42:03.591Z,3.17
2018-11-07T17:44:31.536Z,4.17
2018-11-07T17:46:59.492Z,9.47
2018-11-07T17:49:27.404Z,3.37
2018-11-07T17:51:55.399Z,8.00
2018-11-07T17:54:23.375Z,2.93
2018-11-07T17:56:51.281Z,6.53
2018-11-07T17:59:19.221Z,2.87
2018-11-07T18:01:47.143Z,2.50
2018-11-07T18:04:15.058Z,1.07
2018-11-07T18:06:43.015Z,2.13
2018-11-07T18:09:11.140Z,2.17
2018-11-07T18:11:39.234Z,1.30
2018-11-07T18:14:07.895Z,1.80
2018-11-07T18:16:35.824Z,3.20
2018-11-07T18:19:03.760Z,2.10
2018-11-07T18:21:31.767Z,3.83
2018-11-07T18:23:59.703Z,1.93
2018-11-07T18:26:27.660Z,2.43
2018-11-07T18:28:55.571Z,5.53
2018-11-07T18:31:23.474Z,2.07
2018-11-07T18:33:51.421Z,2.97
2018-11-07T18:36:19.338Z,1.70
2018-11-07T18:38:47.248Z,2.43
2018-11-07T18:41:15.171Z,2.00
2018-11-07T18:43:43.184Z,3.37
2018-11-07T18:46:11.120Z,2.80
2018-11-07T18:48:39.067Z,3.17
2018-11-07T18:51:07.012Z,2.73
2018-11-07T18:53:34.936Z,3.17
2018-11-07T18:56:02.928Z,1.20
2018-11-07T18:58:30.978Z,2.40
2018-11-07T19:00:58.883Z,1.47
2018-11-07T19:03:26.792Z,1.17
2018-11-07T19:05:54.720Z,6.97
2018-11-07T19:08:22.651Z,1.43
2018-11-07T19:10:50.583Z,1.70
2018-11-07T19:13:18.511Z,2.07
2018-11-07T19:15:46.409Z,2.77
2018-11-07T19:18:14.312Z,2.77
2018-11-07T19:20:42.262Z,2.23
2018-11-07T19:23:10.186Z,1.70
2018-11-07T19:25:38.127Z,3.03
2018-11-07T19:28:06.053Z,4.33
2018-11-07T19:30:33.951Z,1.33
2018-11-07T19:33:01.895Z,2.47
2018-11-07T19:35:29.800Z,4.13
2018-11-07T19:37:57.722Z,2.13
2018-11-07T19:40:26.367Z,1.50
2018-11-07T19:42:54.239Z,2.80
2018-11-07T19:45:22.783Z,1.63
2018-11-07T19:47:50.991Z,4.00
2018-11-07T19:50:19.784Z,1.73
2018-11-07T19:52:48.792Z,2.63
2018-11-07T19:55:18.960Z,1.70
2018-11-07T19:57:48.928Z,1.70
2018-11-07T20:00:17.392Z,1.20
2018-11-07T20:02:46.006Z,1.63
2018-11-07T20:05:14.136Z,1.63
2018-11-07T20:07:42.092Z,4.30
2018-11-07T20:10:12.581Z,1.37
2018-11-07T20:12:40.567Z,2.50
2018-11-07T20:15:10.009Z,1.57
2018-11-07T20:17:38.000Z,2.30
2018-11-07T20:20:06.636Z,2.53
2018-11-07T20:22:34.701Z,3.77
2018-11-07T20:25:02.607Z,2.33
2018-11-07T20:27:30.886Z,2.13
2018-11-07T20:29:59.180Z,2.30
2018-11-07T20:32:27.106Z,1.57
2018-11-07T20:34:55.052Z,2.07
2018-11-07T20:37:22.989Z,3.83
2018-11-07T20:39:51.052Z,2.43
2018-11-07T20:42:18.996Z,2.37
2018-11-07T20:44:46.939Z,2.20
2018-11-07T20:47:14.878Z,1.63
2018-11-07T20:49:42.875Z,1.93
2018-11-07T20:52:10.816Z,2.67
2018-11-07T20:54:38.802Z,2.70
2018-11-07T20:57:06.740Z,2.60
2018-11-07T20:59:34.712Z,1.30
2018-11-07T21:02:02.776Z,2.17
2018-11-07T21:04:30.920Z,1.80
2018-11-07T21:06:58.823Z,1.80
2018-11-07T21:09:26.764Z,2.23
2018-11-07T21:11:54.711Z,2.53
2018-11-07T21:14:22.631Z,1.17
2018-11-07T21:16:50.612Z,1.63
2018-11-07T21:19:18.500Z,2.30
2018-11-07T21:21:46.420Z,2.63
2018-11-07T21:24:14.343Z,3.50
2018-11-07T21:26:42.248Z,1.77
2018-11-07T21:29:10.191Z,2.57
2018-11-07T21:31:38.102Z,1.53
2018-11-07T21:34:06.040Z,2.40
2018-11-07T21:36:33.959Z,2.50
2018-11-07T21:39:02.305Z,3.20
2018-11-07T21:41:30.256Z,2.57
2018-11-07T21:43:58.246Z,1.60
2018-11-07T21:46:26.163Z,1.70
2018-11-07T21:48:54.089Z,2.43
2018-11-07T21:51:22.031Z,2.90
2018-11-07T21:53:49.935Z,1.77
2018-11-07T21:56:17.875Z,1.97
2018-11-07T21:58:45.824Z,4.43
2018-11-07T22:01:13.807Z,1.60
2018-11-07T22:03:41.743Z,4.20
2018-11-07T22:06:09.665Z,3.57
2018-11-07T22:08:37.596Z,3.23
2018-11-07T22:11:05.631Z,4.20
2018-11-07T22:13:33.548Z,3.20
2018-11-07T22:16:01.496Z,2.23
2018-11-07T22:18:29.444Z,1.67
2018-11-07T22:20:57.356Z,2.80
2018-11-07T22:23:25.847Z,2.37
2018-11-07T22:25:54.567Z,3.50
2018-11-07T22:28:23.332Z,3.83
2018-11-07T22:30:51.303Z,2.37
2018-11-07T22:33:19.224Z,4.53
2018-11-07T22:35:47.144Z,4.23
2018-11-07T22:38:15.083Z,8.23
2018-11-07T22:40:42.999Z,7.20
2018-11-07T22:43:10.934Z,4.93
2018-11-07T22:45:38.876Z,3.53
2018-11-07T22:48:06.774Z,3.17
2018-11-07T22:50:34.716Z,3.17
2018-11-07T22:53:02.623Z,2.30
2018-11-07T22:55:30.576Z,3.57
2018-11-07T22:57:58.497Z,2.20
2018-11-07T23:00:31.917Z,3.80
2018-11-07T23:02:59.868Z,4.47
2018-11-07T23:05:27.817Z,2.80
2018-11-07T23:07:55.728Z,4.27
2018-11-07T23:10:23.661Z,2.40
2018-11-07T23:12:51.608Z,4.40
2018-11-07T23:15:24.894Z,2.30
2018-11-07T23:17:52.842Z,4.27
2018-11-07T23:20:20.777Z,6.20
2018-11-07T23:22:48.688Z,2.33
2018-11-07T23:25:16.635Z,3.63
2018-11-07T23:27:44.842Z,2.63
2018-11-07T23:30:12.743Z,2.90
2018-11-07T23:32:40.683Z,2.10
2018-11-07T23:35:08.660Z,3.90
2018-11-07T23:37:36.821Z,5.10
2018-11-07T23:40:05.275Z,2.57
2018-11-07T23:42:33.385Z,3.33
2018-11-07T23:45:01.320Z,5.77
2018-11-07T23:47:31.460Z,3.80
2018-11-07T23:49:59.348Z,5.50
2018-11-07T23:52:32.615Z,2.63
2018-11-07T23:55:00.573Z,2.83
2018-11-07T23:57:28.581Z,2.53
2018-11-07T23:59:56.463Z,2.17
